Time;durP1;ratioP1;P1;durP2;ratioP2;P2;SDS_P1;SDS_P2;PMS_P1;PMS_P2;Temp;Humidity;BMP_temperature;BMP_pressure;BME280_temperature;BME280_humidity;BME280_pressure;Samples;Min_cycle;Max_cycle;Signal;HPM_P1;HPM_P2
2021/12/12 00:01:24;;;;;;;3.15;2.70;;;2.40;99.90;;;;;;4935754;29;20055;-86
2021/12/12 00:04:04;;;;;;;5.97;4.00;;;2.40;99.90;;;;;;4906863;29;20052;-87
2021/12/12 00:06:33;;;;;;;9.90;4.15;;;2.40;99.90;;;;;;4900931;29;20067;-91
2021/12/12 00:09:27;;;;;;;3.22;3.03;;;2.40;99.90;;;;;;4916092;29;20517;-83
2021/12/12 00:11:54;;;;;;;4.43;3.05;;;2.50;99.90;;;;;;4915846;29;20172;-81
2021/12/12 00:14:26;;;;;;;3.45;3.25;;;2.50;99.90;;;;;;4915978;28;20418;-81
2021/12/12 00:16:55;;;;;;;2.42;2.08;;;2.50;99.90;;;;;;4914756;29;20558;-81
2021/12/12 00:19:41;;;;;;;1.95;1.58;;;2.50;99.90;;;;;;4915882;29;20052;-81
2021/12/12 00:22:13;;;;;;;9.85;3.58;;;2.50;99.90;;;;;;4877896;29;20490;-82
2021/12/12 00:24:40;;;;;;;1.75;1.75;;;2.50;99.90;;;;;;4877865;29;20090;-83
2021/12/12 00:27:06;;;;;;;1.85;1.75;;;2.50;99.90;;;;;;4878007;29;20065;-82
2021/12/12 00:29:33;;;;;;;1.90;1.83;;;2.50;99.90;;;;;;4862695;29;20521;-83
2021/12/12 00:32:05;;;;;;;9.50;4.55;;;2.50;99.90;;;;;;4878331;29;20128;-82
2021/12/12 00:34:35;;;;;;;3.45;3.17;;;2.60;99.90;;;;;;4862786;29;20061;-81
2021/12/12 00:37:03;;;;;;;4.28;3.33;;;2.60;99.90;;;;;;4878238;29;20045;-84
2021/12/12 00:39:39;;;;;;;3.28;3.05;;;2.60;99.90;;;;;;4862853;29;20055;-84
2021/12/12 00:42:23;;;;;;;3.63;3.33;;;2.60;99.90;;;;;;4899428;29;20108;-84
2021/12/12 00:44:59;;;;;;;7.10;4.28;;;2.60;99.90;;;;;;4900212;29;20453;-86
2021/12/12 00:47:25;;;;;;;3.55;3.03;;;2.60;99.90;;;;;;4899989;29;20072;-83
2021/12/12 00:49:52;;;;;;;3.90;2.97;;;2.60;99.90;;;;;;4884189;29;20143;-80
2021/12/12 00:52:19;;;;;;;11.80;8.98;;;2.60;99.90;;;;;;4900175;29;20546;-86
2021/12/12 00:54:47;;;;;;;16.45;5.55;;;2.60;99.90;;;;;;4899692;29;20056;-83
2021/12/12 00:57:16;;;;;;;1.90;1.70;;;2.60;99.90;;;;;;4900658;29;20103;-82
2021/12/12 00:59:44;;;;;;;6.40;3.53;;;2.70;99.90;;;;;;4899931;29;20087;-83
2021/12/12 01:02:29;;;;;;;10.90;2.13;;;2.60;99.90;;;;;;4859278;29;20154;-81
2021/12/12 01:04:58;;;;;;;6.45;3.50;;;2.70;99.90;;;;;;4843792;29;20093;-86
2021/12/12 01:07:34;;;;;;;2.55;2.38;;;2.60;99.90;;;;;;4858939;29;20057;-83
2021/12/12 01:10:31;;;;;;;2.05;1.95;;;2.60;99.90;;;;;;4843633;29;20081;-86
2021/12/12 01:12:59;;;;;;;13.10;5.47;;;2.60;99.90;;;;;;4866840;29;20060;-85
2021/12/12 01:15:34;;;;;;;4.57;3.65;;;2.70;99.90;;;;;;4895930;29;20484;-83
2021/12/12 01:18:05;;;;;;;12.20;3.78;;;2.70;99.90;;;;;;4880385;29;20071;-83
2021/12/12 01:20:54;;;;;;;5.38;4.82;;;2.70;99.90;;;;;;4895942;29;20148;-84
2021/12/12 01:23:34;;;;;;;3.30;2.70;;;2.70;99.90;;;;;;4879945;29;20076;-85
2021/12/12 01:26:01;;;;;;;5.47;4.97;;;2.70;99.90;;;;;;4895795;29;20067;-84
2021/12/12 01:28:30;;;;;;;5.13;4.43;;;2.70;99.90;;;;;;4880490;29;20059;-85
2021/12/12 01:30:59;;;;;;;2.50;2.35;;;2.70;99.90;;;;;;4895692;29;20090;-84
2021/12/12 01:33:35;;;;;;;5.05;4.65;;;2.70;99.90;;;;;;4895766;29;20059;-84
2021/12/12 01:36:29;;;;;;;7.63;3.55;;;2.80;99.90;;;;;;4895981;29;20048;-84
2021/12/12 01:38:56;;;;;;;3.40;3.03;;;2.80;99.90;;;;;;4888311;29;20138;-81
2021/12/12 01:41:27;;;;;;;4.78;3.55;;;2.80;99.90;;;;;;4933727;29;20063;-85
2021/12/12 01:44:03;;;;;;;4.90;2.70;;;2.80;99.90;;;;;;4917745;29;20087;-83
2021/12/12 01:46:40;;;;;;;3.25;3.15;;;2.80;99.90;;;;;;4933667;29;20433;-86
2021/12/12 01:49:19;;;;;;;12.48;2.67;;;2.80;99.90;;;;;;4941856;28;20112;-86
2021/12/12 01:51:47;;;;;;;12.02;6.20;;;2.80;99.90;;;;;;4956539;28;20723;-84
2021/12/12 01:54:17;;;;;;;8.20;4.63;;;2.80;99.90;;;;;;4973995;28;20051;-82
2021/12/12 01:56:54;;;;;;;1.08;1.08;;;2.80;99.90;;;;;;4974447;28;20134;-85
2021/12/12 01:59:28;;;;;;;1.30;1.20;;;2.80;99.90;;;;;;4962471;28;20090;-84
2021/12/12 02:02:12;;;;;;;4.18;3.33;;;2.80;99.90;;;;;;4974310;28;20137;-82
2021/12/12 02:04:48;;;;;;;23.02;4.20;;;2.90;99.90;;;;;;4974158;28;20100;-86
2021/12/12 02:07:18;;;;;;;5.25;1.50;;;2.90;99.90;;;;;;4956658;28;20103;-86
2021/12/12 02:09:46;;;;;;;0.95;0.95;;;2.80;99.90;;;;;;4956591;28;20101;-86
2021/12/12 02:12:12;;;;;;;2.00;1.00;;;2.90;99.90;;;;;;4973874;28;20086;-84
2021/12/12 02:14:41;;;;;;;6.32;2.25;;;2.90;99.90;;;;;;4974097;28;20093;-82
2021/12/12 02:17:30;;;;;;;2.20;1.95;;;2.90;99.90;;;;;;4956648;28;20506;-83
2021/12/12 02:37:22;;;;;;;2.95;2.05;;;3.00;99.90;;;;;;4956136;28;20562;-83
2021/12/12 02:39:49;;;;;;;2.33;2.30;;;3.00;99.90;;;;;;4956233;28;20054;-82
2021/12/12 02:42:18;;;;;;;4.10;2.30;;;3.00;99.90;;;;;;4940186;28;20510;-83
2021/12/12 02:44:45;;;;;;;4.53;3.13;;;3.00;99.90;;;;;;4973295;28;20054;-82
2021/12/12 02:47:17;;;;;;;4.60;1.75;;;3.00;99.90;;;;;;4973158;28;20475;-80
2021/12/12 02:52:30;;;;;;;;;;;3.10;99.90;;;;;;4956324;28;20105;-80
2021/12/12 02:55:00;;;;;;;1.15;1.13;;;3.10;99.90;;;;;;4973239;28;19926;-81
2021/12/12 02:57:26;;;;;;;3.25;2.92;;;3.10;99.90;;;;;;4940010;28;20053;-79
2021/12/12 02:59:52;;;;;;;8.77;5.63;;;3.10;99.90;;;;;;4973135;28;20507;-77
2021/12/12 03:02:27;;;;;;;4.88;4.50;;;3.20;99.90;;;;;;4973428;28;20133;-81
2021/12/12 03:04:54;;;;;;;2.58;2.17;;;3.10;99.90;;;;;;4955802;28;20122;-79
2021/12/12 03:07:23;;;;;;;10.50;3.08;;;3.10;99.90;;;;;;4976376;28;20484;-78
2021/12/12 03:09:56;;;;;;;2.45;2.25;;;3.10;99.90;;;;;;4959311;28;20051;-80
2021/12/12 03:12:32;;;;;;;26.75;2.33;;;3.10;99.90;;;;;;4959400;28;20106;-82
2021/12/12 03:15:31;;;;;;;0.82;0.82;;;3.20;99.90;;;;;;4976299;28;20506;-81
2021/12/12 03:18:03;;;;;;;3.22;3.05;;;3.20;99.90;;;;;;4974485;28;20067;-80
2021/12/12 03:20:36;;;;;;;2.83;2.72;;;3.20;99.90;;;;;;4976561;28;20054;-82
2021/12/12 03:23:19;;;;;;;2.80;2.60;;;3.20;99.90;;;;;;4975974;28;20479;-82
2021/12/12 03:25:49;;;;;;;3.85;1.95;;;3.20;99.90;;;;;;4975254;28;20062;-80
2021/12/12 03:28:19;;;;;;;1.73;1.52;;;3.20;99.90;;;;;;4976030;28;20512;-82
2021/12/12 03:30:46;;;;;;;1.08;1.00;;;3.20;99.90;;;;;;4976508;28;20388;-83
2021/12/12 03:33:12;;;;;;;4.22;3.30;;;3.20;99.90;;;;;;4976267;28;20046;-80
2021/12/12 03:35:38;;;;;;;1.15;1.15;;;3.20;99.90;;;;;;4959082;28;20039;-78
2021/12/12 03:38:06;;;;;;;2.67;2.55;;;3.30;99.90;;;;;;4976493;28;20057;-81
2021/12/12 03:40:36;;;;;;;2.30;1.83;;;3.30;99.90;;;;;;4958868;28;20047;-82
2021/12/12 03:43:03;;;;;;;1.52;1.42;;;3.30;99.90;;;;;;4975827;28;20039;-78
2021/12/12 03:45:34;;;;;;;2.15;2.05;;;3.30;99.90;;;;;;4959107;28;20039;-79
2021/12/12 03:48:07;;;;;;;1.90;1.75;;;3.30;99.90;;;;;;4975928;28;20557;-81
2021/12/12 03:50:36;;;;;;;1.58;1.45;;;3.30;99.90;;;;;;4976122;28;20046;-79
2021/12/12 03:53:03;;;;;;;3.25;1.42;;;3.40;99.90;;;;;;4958229;28;20050;-82
2021/12/12 03:55:29;;;;;;;2.65;2.50;;;3.40;99.90;;;;;;4975551;28;20042;-81
2021/12/12 03:57:57;;;;;;;0.90;0.90;;;3.40;99.90;;;;;;4975847;28;20407;-82
2021/12/12 04:00:31;;;;;;;1.27;1.20;;;3.40;99.90;;;;;;4976005;28;20055;-82
2021/12/12 04:03:00;;;;;;;3.90;1.98;;;3.40;99.90;;;;;;4975887;28;20046;-82
2021/12/12 04:05:27;;;;;;;3.15;2.38;;;3.40;99.90;;;;;;4975419;28;20696;-83
2021/12/12 04:07:56;;;;;;;1.65;1.55;;;3.50;99.90;;;;;;4958190;28;20047;-81
2021/12/12 04:10:24;;;;;;;6.03;1.10;;;3.50;99.90;;;;;;4975756;28;20045;-76
2021/12/12 04:12:51;;;;;;;3.28;3.08;;;3.50;99.90;;;;;;4958448;28;20054;-82
2021/12/12 04:15:17;;;;;;;0.80;0.80;;;3.50;99.90;;;;;;4958428;28;20053;-80
2021/12/12 04:17:45;;;;;;;9.52;1.83;;;3.50;99.90;;;;;;4975777;28;20054;-82
2021/12/12 04:20:28;;;;;;;8.10;6.43;;;3.60;99.90;;;;;;4958514;28;20459;-81
2021/12/12 04:23:29;;;;;;;1.88;1.38;;;3.60;99.90;;;;;;4958133;28;20053;-82
2021/12/12 04:26:13;;;;;;;;;;;3.60;99.90;;;;;;4878748;29;20132;-81
2021/12/12 04:28:40;;;;;;;1.48;1.38;;;3.60;99.90;;;;;;4878402;29;19934;-82
2021/12/12 04:31:11;;;;;;;2.80;2.45;;;3.60;99.90;;;;;;4888883;29;20089;-79
2021/12/12 04:33:37;;;;;;;6.33;2.73;;;3.60;99.90;;;;;;4876756;29;20429;-78
2021/12/12 04:36:03;;;;;;;3.75;0.82;;;3.60;99.90;;;;;;4866122;29;20302;-81
2021/12/12 04:38:29;;;;;;;3.30;1.35;;;3.70;99.90;;;;;;4878904;29;20089;-80
2021/12/12 04:40:55;;;;;;;2.17;1.02;;;3.60;99.90;;;;;;4878465;29;20160;-81
2021/12/12 04:43:20;;;;;;;3.08;1.83;;;3.70;99.90;;;;;;4862857;29;20049;-82
2021/12/12 04:45:58;;;;;;;2.17;1.98;;;3.70;99.90;;;;;;4877975;29;20053;-82
2021/12/12 04:51:22;;;;;;;1.65;0.98;;;3.80;99.90;;;;;;4878035;29;20064;-79
2021/12/12 04:53:58;;;;;;;1.30;1.20;;;3.80;99.90;;;;;;4877975;29;20049;-83
2021/12/12 04:56:35;;;;;;;1.20;0.90;;;3.80;99.90;;;;;;4877964;29;20049;-83
2021/12/12 04:59:11;;;;;;;3.78;1.20;;;3.80;99.90;;;;;;4887119;28;20051;-83
2021/12/12 05:01:44;;;;;;;1.95;1.08;;;3.80;99.90;;;;;;4957549;28;20133;-83
2021/12/12 05:04:28;;;;;;;3.47;1.83;;;3.90;99.90;;;;;;4957359;28;20034;-82
2021/12/12 05:07:19;;;;;;;1.05;1.05;;;3.80;99.90;;;;;;4957359;28;20086;-78
2021/12/12 05:09:56;;;;;;;4.95;2.30;;;3.80;99.90;;;;;;4974123;28;20496;-81
2021/12/12 05:12:46;;;;;;;2.40;2.28;;;3.80;99.90;;;;;;4958054;28;20054;-78
2021/12/12 05:15:24;;;;;;;0.65;0.65;;;3.90;99.90;;;;;;4973935;28;20051;-79
2021/12/12 05:18:19;;;;;;;1.52;1.42;;;3.90;99.90;;;;;;4957308;28;20093;-83
2021/12/12 05:20:52;;;;;;;7.07;1.75;;;3.90;99.90;;;;;;4974498;28;20508;-82
2021/12/12 05:23:23;;;;;;;3.03;0.80;;;3.90;99.90;;;;;;4974534;28;20510;-82
2021/12/12 05:26:05;;;;;;;2.13;1.15;;;4.00;99.90;;;;;;4974401;28;20487;-83
2021/12/12 05:28:50;;;;;;;0.50;0.50;;;4.00;99.90;;;;;;4956736;28;20526;-82
2021/12/12 05:31:19;;;;;;;0.90;0.90;;;4.00;99.90;;;;;;4976383;28;20503;-77
2021/12/12 05:33:48;;;;;;;1.15;1.13;;;4.00;99.90;;;;;;4967858;28;20050;-78
2021/12/12 05:36:15;;;;;;;2.65;2.45;;;4.00;99.90;;;;;;4962889;28;20035;-78
2021/12/12 05:38:42;;;;;;;1.05;1.05;;;4.10;99.90;;;;;;4974752;28;20503;-79
2021/12/12 05:41:10;;;;;;;0.77;0.77;;;4.10;99.90;;;;;;4974649;28;20501;-82
2021/12/12 05:43:36;;;;;;;0.47;0.47;;;4.10;99.90;;;;;;4956992;28;20059;-82
2021/12/12 05:46:05;;;;;;;1.42;1.40;;;4.10;99.90;;;;;;4974378;28;20126;-81
2021/12/12 05:48:31;;;;;;;1.75;1.30;;;4.10;99.90;;;;;;4956822;28;20047;-77
2021/12/12 05:50:59;;;;;;;0.45;0.38;;;4.10;99.90;;;;;;4956877;28;20062;-78
2021/12/12 05:53:25;;;;;;;0.90;0.90;;;4.10;99.90;;;;;;4974081;28;22025;-82
2021/12/12 05:55:51;;;;;;;1.73;1.63;;;4.20;99.90;;;;;;4956788;28;20062;-81
2021/12/12 05:58:20;;;;;;;1.40;1.40;;;4.20;99.90;;;;;;4956544;28;20046;-81
2021/12/12 06:00:57;;;;;;;1.65;1.05;;;4.20;99.90;;;;;;4956775;28;20058;-83
2021/12/12 06:03:26;;;;;;;0.20;0.20;;;4.20;99.90;;;;;;4956717;28;20185;-80
2021/12/12 06:05:55;;;;;;;7.85;1.90;;;4.20;99.90;;;;;;4972834;28;20061;-78
2021/12/12 06:08:43;;;;;;;1.80;1.00;;;4.30;99.90;;;;;;4974019;28;20050;-81
2021/12/12 06:11:09;;;;;;;1.13;1.08;;;4.30;99.90;;;;;;4973847;28;20049;-81
2021/12/12 06:13:37;;;;;;;1.50;0.98;;;4.30;99.90;;;;;;4974014;28;20053;-82
2021/12/12 06:16:05;;;;;;;2.50;1.77;;;4.30;99.90;;;;;;4973631;28;20487;-80
2021/12/12 06:18:39;;;;;;;7.57;2.05;;;4.30;99.90;;;;;;4956692;28;20369;-82
2021/12/12 06:21:09;;;;;;;0.52;0.52;;;4.30;99.90;;;;;;4956818;28;20462;-83
2021/12/12 06:23:35;;;;;;;2.42;2.33;;;4.30;99.90;;;;;;4956584;28;20110;-81
2021/12/12 06:26:02;;;;;;;1.80;1.20;;;4.30;99.90;;;;;;4973872;28;20479;-82
2021/12/12 06:28:40;;;;;;;1.15;1.15;;;4.40;99.90;;;;;;4973907;28;20046;-82
2021/12/12 06:31:09;;;;;;;0.63;0.63;;;4.30;99.90;;;;;;4956520;28;20058;-82
2021/12/12 06:33:39;;;;;;;0.60;0.60;;;4.40;99.90;;;;;;4984801;28;20042;-81
2021/12/12 06:36:09;;;;;;;0.93;0.90;;;4.30;99.90;;;;;;4984790;28;20051;-80
2021/12/12 06:38:38;;;;;;;1.17;1.02;;;4.40;99.90;;;;;;4974815;28;20035;-79
2021/12/12 06:41:06;;;;;;;4.03;1.05;;;4.40;99.90;;;;;;4975659;28;20038;-83
2021/12/12 06:43:32;;;;;;;1.00;0.95;;;4.50;99.90;;;;;;4960600;28;20042;-84
2021/12/12 06:46:01;;;;;;;1.65;0.90;;;4.40;99.90;;;;;;4977589;28;20384;-78
2021/12/12 06:48:27;;;;;;;1.20;0.82;;;4.40;99.90;;;;;;4977599;28;20035;-83
2021/12/12 06:50:57;;;;;;;2.78;2.33;;;4.40;99.90;;;;;;4960545;28;20047;-82
2021/12/12 06:53:28;;;;;;;1.70;1.60;;;4.40;99.90;;;;;;4959899;28;20121;-78
2021/12/12 06:55:57;;;;;;;0.85;0.85;;;4.40;99.90;;;;;;4977211;28;20051;-82
2021/12/12 06:58:28;;;;;;;0.20;0.20;;;4.40;99.90;;;;;;4977244;28;20051;-81
2021/12/12 07:01:04;;;;;;;0.20;0.20;;;4.50;99.90;;;;;;4977112;28;20059;-82
2021/12/12 07:03:30;;;;;;;1.48;0.90;;;4.50;99.90;;;;;;4960012;28;20098;-80
2021/12/12 07:05:56;;;;;;;0.95;0.95;;;4.50;99.90;;;;;;4977124;28;20050;-82
2021/12/12 07:08:22;;;;;;;1.35;1.25;;;4.50;99.90;;;;;;4976811;28;20046;-82
2021/12/12 07:10:49;;;;;;;1.13;1.00;;;4.50;99.90;;;;;;4976998;28;20074;-81
2021/12/12 07:13:16;;;;;;;1.27;1.20;;;4.50;99.90;;;;;;4977013;28;20053;-80
2021/12/12 07:16:03;;;;;;;1.25;1.23;;;4.50;99.90;;;;;;4959867;28;20078;-79
2021/12/12 07:18:33;;;;;;;0.50;0.50;;;4.50;99.90;;;;;;4976563;28;20050;-84
2021/12/12 07:21:09;;;;;;;0.98;0.98;;;4.50;99.90;;;;;;4959712;28;20042;-83
2021/12/12 07:23:36;;;;;;;1.08;1.08;;;4.60;99.90;;;;;;4959550;28;20462;-83
2021/12/12 07:26:05;;;;;;;0.40;0.40;;;4.60;99.90;;;;;;4976656;28;20102;-83
2021/12/12 07:28:32;;;;;;;0.85;0.85;;;4.60;99.90;;;;;;4976739;28;20061;-83
2021/12/12 07:31:13;;;;;;;0.80;0.63;;;4.60;99.90;;;;;;4976192;28;20395;-81
2021/12/12 07:33:40;;;;;;;0.43;0.43;;;4.60;99.90;;;;;;4976411;28;20491;-79
2021/12/12 07:36:08;;;;;;;0.65;0.65;;;4.60;99.90;;;;;;4976434;28;20042;-83
2021/12/12 07:38:36;;;;;;;0.77;0.77;;;4.60;99.90;;;;;;4976637;28;20064;-83
2021/12/12 07:41:05;;;;;;;0.60;0.60;;;4.60;99.90;;;;;;4959161;28;20043;-82
2021/12/12 07:43:32;;;;;;;0.40;0.40;;;4.70;99.90;;;;;;4972804;28;20146;-84
2021/12/12 07:46:03;;;;;;;0.50;0.50;;;4.70;99.90;;;;;;4976287;28;20043;-82
2021/12/12 07:48:29;;;;;;;0.47;0.47;;;4.70;99.90;;;;;;4975092;28;20471;-84
2021/12/12 07:51:03;;;;;;;0.63;0.63;;;4.70;99.90;;;;;;4958857;28;20054;-79
2021/12/12 07:53:34;;;;;;;1.27;1.02;;;4.70;99.90;;;;;;4958683;28;20093;-82
2021/12/12 07:56:00;;;;;;;0.65;0.65;;;4.80;99.90;;;;;;4976452;28;20050;-83
2021/12/12 07:58:27;;;;;;;7.25;0.73;;;4.70;99.90;;;;;;4974783;28;20057;-78
2021/12/12 08:00:57;;;;;;;0.30;0.30;;;4.80;99.90;;;;;;4976076;28;20126;-78
2021/12/12 08:03:26;;;;;;;0.70;0.70;;;4.80;99.90;;;;;;4958607;28;20042;-78
2021/12/12 08:05:53;;;;;;;0.73;0.70;;;4.80;99.90;;;;;;4976135;28;20049;-82
2021/12/12 08:08:38;;;;;;;1.23;1.23;;;4.80;99.90;;;;;;4976178;28;20038;-82
2021/12/12 08:11:05;;;;;;;0.50;0.40;;;4.80;99.90;;;;;;4975994;28;20072;-82
2021/12/12 08:13:32;;;;;;;2.20;1.00;;;4.90;99.90;;;;;;4976161;28;20433;-82
2021/12/12 08:16:00;;;;;;;1.30;0.47;;;4.90;99.90;;;;;;4958479;28;20039;-82
2021/12/12 08:18:27;;;;;;;0.43;0.30;;;4.90;99.90;;;;;;4975867;28;20101;-83
2021/12/12 08:20:54;;;;;;;1.20;0.45;;;4.90;99.90;;;;;;4975802;28;20026;-80
2021/12/12 08:23:23;;;;;;;0.90;0.45;;;5.00;99.90;;;;;;4975565;28;20480;-81
2021/12/12 08:25:51;;;;;;;0.90;0.90;;;5.00;99.90;;;;;;4958156;28;20046;-82
2021/12/12 08:28:19;;;;;;;1.58;1.48;;;5.00;99.90;;;;;;4975385;28;20054;-83
2021/12/12 08:30:46;;;;;;;3.20;0.85;;;5.10;99.90;;;;;;4975412;28;20080;-82
2021/12/12 08:33:13;;;;;;;0.57;0.57;;;5.10;99.90;;;;;;4975611;28;20042;-83
2021/12/12 08:35:41;;;;;;;0.88;0.88;;;5.10;99.90;;;;;;4975538;28;20194;-83
2021/12/12 08:38:09;;;;;;;2.28;0.52;;;5.10;99.90;;;;;;4958195;28;20042;-82
2021/12/12 08:40:48;;;;;;;1.27;0.50;;;5.20;99.90;;;;;;4975483;28;20042;-79
2021/12/12 08:43:16;;;;;;;0.40;0.40;;;5.20;99.90;;;;;;4958150;28;20058;-83
2021/12/12 08:46:04;;;;;;;1.65;0.30;;;5.20;99.90;;;;;;4957834;28;20050;-84
2021/12/12 08:48:32;;;;;;;0.25;0.25;;;5.30;99.90;;;;;;4975058;28;20050;-83
2021/12/12 08:51:09;;;;;;;0.60;0.60;;;5.30;99.90;;;;;;4957817;28;20136;-83
2021/12/12 08:53:35;;;;;;;0.55;0.55;;;5.30;99.90;;;;;;4974810;28;20471;-82
2021/12/12 08:56:19;;;;;;;2.13;2.03;;;5.30;99.90;;;;;;4975183;28;20082;-83
2021/12/12 08:58:59;;;;;;;0.30;0.30;;;5.30;99.90;;;;;;4972883;28;20062;-84
2021/12/12 09:01:28;;;;;;;1.30;1.00;;;5.30;99.90;;;;;;4974971;28;20393;-82
2021/12/12 09:04:04;;;;;;;0.28;0.28;;;5.40;99.90;;;;;;4957049;28;20129;-83
2021/12/12 09:06:34;;;;;;;1.58;1.48;;;5.40;99.90;;;;;;4974868;28;20101;-83
2021/12/12 09:09:05;;;;;;;1.75;1.27;;;5.40;99.90;;;;;;4957429;28;20038;-82
2021/12/12 09:11:34;;;;;;;2.58;0.93;;;5.40;99.90;;;;;;4974816;28;20046;-82
2021/12/12 09:14:10;;;;;;;1.90;1.30;;;5.50;99.90;;;;;;4957492;28;20467;-84
2021/12/12 09:16:46;;;;;;;1.67;1.02;;;5.50;99.90;;;;;;4957274;28;20054;-82
2021/12/12 09:19:24;;;;;;;2.10;1.42;;;5.50;99.90;;;;;;4957371;28;20114;-82
2021/12/12 09:22:03;;;;;;;1.13;1.13;;;5.50;99.90;;;;;;4974802;28;20042;-82
2021/12/12 09:24:44;;;;;;;0.50;0.50;;;5.50;99.90;;;;;;4957319;28;20046;-83
2021/12/12 09:27:17;;;;;;;0.65;0.65;;;5.60;99.90;;;;;;4974327;28;20046;-83
2021/12/12 09:29:57;;;;;;;2.22;1.38;;;5.60;99.90;;;;;;4957412;28;20434;-83
2021/12/12 09:32:25;;;;;;;0.68;0.57;;;5.70;99.90;;;;;;4974432;28;20043;-79
2021/12/12 09:35:20;;;;;;;2.25;2.15;;;5.70;99.90;;;;;;4974608;28;20050;-82
2021/12/12 09:37:49;;;;;;;0.95;0.95;;;5.70;99.90;;;;;;4956931;28;20047;-83
2021/12/12 09:40:49;;;;;;;0.82;0.73;;;5.70;99.90;;;;;;4974929;28;20089;-83
2021/12/12 09:43:33;;;;;;;1.42;1.10;;;5.70;99.90;;;;;;4974507;28;20104;-84
2021/12/12 09:46:02;;;;;;;1.90;1.80;;;5.70;99.90;;;;;;4974292;28;20042;-80
2021/12/12 09:52:28;;;;;;;1.38;1.27;;;5.80;99.90;;;;;;4822197;29;20110;-83
2021/12/12 09:55:13;;;;;;;2.55;1.85;;;5.80;99.90;;;;;;4821877;29;20063;-83
2021/12/12 09:58:03;;;;;;;1.05;1.00;;;5.80;99.90;;;;;;4822035;29;20051;-84
2021/12/12 10:00:43;;;;;;;2.53;0.90;;;5.80;99.90;;;;;;4836972;29;20054;-83
2021/12/12 10:03:16;;;;;;;2.05;0.52;;;5.90;99.90;;;;;;4821921;29;20050;-83
2021/12/12 10:05:56;;;;;;;0.82;0.82;;;6.00;99.90;;;;;;4821835;29;20047;-81
2021/12/12 10:08:49;;;;;;;1.98;1.05;;;6.00;99.90;;;;;;4821973;29;20042;-83
2021/12/12 10:11:27;;;;;;;0.30;0.30;;;6.00;99.90;;;;;;4806879;29;20183;-83
2021/12/12 10:14:05;;;;;;;1.33;1.25;;;6.00;99.90;;;;;;4821978;29;20415;-81
2021/12/12 10:16:39;;;;;;;1.00;1.00;;;6.10;99.90;;;;;;4810452;29;20086;-80
2021/12/12 10:19:26;;;;;;;1.00;0.98;;;6.10;99.90;;;;;;4810198;29;20536;-84
2021/12/12 10:22:29;;;;;;;0.75;0.65;;;6.20;99.90;;;;;;4843151;29;20115;-83
2021/12/12 10:25:06;;;;;;;3.63;1.88;;;6.30;99.90;;;;;;4880613;28;20052;-79
2021/12/12 10:28:18;;;;;;;2.30;1.58;;;6.30;99.90;;;;;;4977680;28;20514;-83
2021/12/12 10:31:05;;;;;;;1.00;0.88;;;6.50;99.90;;;;;;4972184;28;20086;-85
2021/12/12 10:33:46;;;;;;;1.55;1.45;;;6.50;99.90;;;;;;4960468;28;20046;-84
2021/12/12 10:36:19;;;;;;;1.45;1.38;;;6.60;99.90;;;;;;4960623;28;20039;-83
2021/12/12 10:38:57;;;;;;;2.45;1.48;;;6.60;99.90;;;;;;4960478;28;20050;-85
2021/12/12 10:41:39;;;;;;;2.50;2.40;;;6.70;99.90;;;;;;4960409;28;20081;-78
2021/12/12 10:44:22;;;;;;;2.20;1.42;;;6.70;99.90;;;;;;4960374;28;20051;-83
2021/12/12 10:47:03;;;;;;;1.00;1.00;;;6.80;99.90;;;;;;4960167;28;20388;-81
2021/12/12 10:49:34;;;;;;;1.75;1.25;;;6.80;99.90;;;;;;4960269;28;20054;-82
2021/12/12 10:52:16;;;;;;;0.60;0.60;;;6.90;99.90;;;;;;4959959;28;20507;-83
2021/12/12 10:54:45;;;;;;;4.05;1.25;;;6.90;99.90;;;;;;4977221;28;20100;-82
2021/12/12 10:57:22;;;;;;;2.05;0.95;;;7.00;99.90;;;;;;4959963;28;20126;-81
2021/12/12 11:00:25;;;;;;;1.58;1.30;;;7.10;99.90;;;;;;4972839;28;20124;-83
2021/12/12 11:03:20;;;;;;;1.95;1.67;;;7.10;99.90;;;;;;4977294;28;20078;-82
2021/12/12 11:05:59;;;;;;;3.40;1.52;;;7.10;99.90;;;;;;4959907;28;20142;-81
2021/12/12 11:08:47;;;;;;;3.47;3.25;;;7.10;99.90;;;;;;4977170;28;20399;-83
2021/12/12 11:11:17;;;;;;;1.92;1.85;;;7.20;99.90;;;;;;4959911;28;20085;-82
2021/12/12 11:14:02;;;;;;;3.38;1.70;;;7.20;99.90;;;;;;4976916;28;20474;-82
2021/12/12 11:16:36;;;;;;;2.65;0.98;;;7.20;99.90;;;;;;4959736;28;20124;-83
2021/12/12 11:19:38;;;;;;;2.40;1.67;;;7.20;99.90;;;;;;4959521;28;20051;-80
2021/12/12 11:22:13;;;;;;;3.70;2.15;;;7.30;99.90;;;;;;4971708;28;20121;-80
2021/12/12 11:24:56;;;;;;;14.77;1.98;;;7.30;99.90;;;;;;4976824;28;20050;-80
2021/12/12 11:27:35;;;;;;;7.00;1.80;;;7.30;99.90;;;;;;4958647;28;20047;-84
2021/12/12 11:30:10;;;;;;;2.92;2.03;;;7.40;99.90;;;;;;4959166;28;20035;-83
2021/12/12 11:32:36;;;;;;;2.63;1.90;;;7.40;99.90;;;;;;4959428;28;20518;-82
2021/12/12 11:35:06;;;;;;;1.52;1.02;;;7.50;99.90;;;;;;4959157;28;20043;-82
2021/12/12 11:37:43;;;;;;;0.80;0.80;;;7.50;99.90;;;;;;4976265;28;20177;-82
2021/12/12 11:40:22;;;;;;;2.22;2.10;;;7.50;99.90;;;;;;4959213;28;20047;-81
2021/12/12 11:43:27;;;;;;;0.90;0.90;;;7.60;99.90;;;;;;4976380;28;20504;-84
2021/12/12 11:46:00;;;;;;;8.30;1.77;;;7.70;99.90;;;;;;4971373;28;20058;-79
2021/12/12 11:48:59;;;;;;;0.73;0.73;;;7.70;99.90;;;;;;4976410;28;20039;-82
2021/12/12 11:51:54;;;;;;;1.38;0.85;;;7.80;99.90;;;;;;4976263;28;20073;-82
2021/12/12 11:54:34;;;;;;;2.58;1.75;;;7.80;99.90;;;;;;4878758;29;20148;-81
2021/12/12 11:57:24;;;;;;;1.73;1.63;;;7.90;99.90;;;;;;4863772;29;20082;-82
2021/12/12 12:00:04;;;;;;;1.00;1.00;;;7.90;99.90;;;;;;4878977;29;20062;-82
2021/12/12 12:02:40;;;;;;;1.02;1.00;;;7.90;99.90;;;;;;4878930;29;20049;-81
2021/12/12 12:05:23;;;;;;;4.57;1.58;;;7.90;99.90;;;;;;4878838;29;20177;-84
2021/12/12 12:08:39;;;;;;;0.85;0.85;;;7.90;99.90;;;;;;4878870;29;20576;-84
2021/12/12 12:11:23;;;;;;;0.82;0.82;;;8.00;99.90;;;;;;4808367;29;20594;-83
2021/12/12 12:13:54;;;;;;;2.28;1.92;;;8.00;99.90;;;;;;4823611;29;20058;-82
2021/12/12 12:16:43;;;;;;;3.35;2.92;;;8.10;99.90;;;;;;4823659;29;20050;-84
2021/12/12 12:19:43;;;;;;;0.47;0.38;;;8.10;99.90;;;;;;4808172;29;20058;-84
2021/12/12 12:22:30;;;;;;;1.77;1.55;;;8.10;99.90;;;;;;4754708;30;20148;-81
2021/12/12 12:26:50;;;;;;;1.35;1.30;;;8.10;99.90;;;;;;4768949;30;20068;-83
2021/12/12 12:28:29;;;;;;;2.20;1.55;;;8.10;99.90;;;;;;4751570;30;20052;-81
2021/12/12 12:31:19;;;;;;;1.45;1.02;;;8.20;99.90;;;;;;4768756;29;20685;-84
2021/12/12 12:34:23;;;;;;;1.02;1.02;;;8.20;99.90;;;;;;4804920;29;20055;-84
2021/12/12 12:37:19;;;;;;;1.95;1.45;;;8.20;99.90;;;;;;4751384;30;20075;-84
2021/12/12 12:40:16;;;;;;;1.80;1.70;;;8.20;99.90;;;;;;4750740;30;20110;-84
2021/12/12 12:43:32;;;;;;;0.88;0.88;;;8.20;99.90;;;;;;4716157;30;20070;-83
2021/12/12 12:46:49;;;;;;;0.57;0.55;;;8.20;99.90;;;;;;4722599;30;20070;-82
2021/12/12 12:50:17;;;;;;;4.68;1.50;;;8.30;99.90;;;;;;4716045;30;20068;-81
2021/12/12 12:52:57;;;;;;;0.70;0.70;;;8.30;99.90;;;;;;4663933;30;20113;-84
2021/12/12 12:56:01;;;;;;;2.83;1.02;;;8.30;99.90;;;;;;4649803;30;20410;-82
2021/12/12 12:59:01;;;;;;;2.58;2.45;;;8.30;99.90;;;;;;4657734;30;20052;-86
2021/12/12 13:01:36;;;;;;;0.57;0.50;;;8.30;99.90;;;;;;4667089;30;20058;-83
2021/12/12 13:04:01;;;;;;;2.22;2.13;;;8.30;99.90;;;;;;4666851;30;20053;-80
2021/12/12 13:07:08;;;;;;;0.90;0.90;;;8.30;99.90;;;;;;4666690;30;20062;-82
2021/12/12 13:09:48;;;;;;;6.75;1.08;;;8.40;99.90;;;;;;4667289;30;20050;-82
2021/12/12 13:12:27;;;;;;;0.70;0.70;;;8.30;99.90;;;;;;4667073;30;20045;-82
2021/12/12 13:15:22;;;;;;;2.20;0.95;;;8.40;99.90;;;;;;4667066;30;20058;-83
2021/12/12 13:18:25;;;;;;;1.55;1.55;;;8.40;99.90;;;;;;4666984;30;20101;-82
2021/12/12 13:21:16;;;;;;;1.88;1.17;;;8.30;99.90;;;;;;4736165;30;20068;-82
2021/12/12 13:23:57;;;;;;;1.52;1.42;;;8.30;99.90;;;;;;4734099;30;20059;-86
2021/12/12 13:30:03;;;;;;;3.20;0.60;;;8.40;99.90;;;;;;4918507;28;20046;-82
2021/12/12 13:32:47;;;;;;;0.55;0.55;;;8.40;99.90;;;;;;4957260;28;20054;-83
2021/12/12 13:35:40;;;;;;;4.68;1.23;;;8.40;99.90;;;;;;4975364;28;20046;-87
2021/12/12 13:38:30;;;;;;;1.45;1.33;;;8.50;99.90;;;;;;4957809;28;20073;-82
2021/12/12 13:41:18;;;;;;;1.17;1.15;;;8.50;99.90;;;;;;4974561;28;20446;-83
2021/12/12 13:44:11;;;;;;;0.50;0.50;;;8.50;99.90;;;;;;4974431;28;20047;-84
2021/12/12 13:47:07;;;;;;;1.67;1.23;;;8.50;99.90;;;;;;4972905;28;20042;-81
2021/12/12 13:49:53;;;;;;;4.72;1.50;;;8.60;99.90;;;;;;4956658;28;20039;-84
2021/12/12 13:52:38;;;;;;;1.83;1.25;;;8.50;99.90;;;;;;4957101;28;20518;-82
2021/12/12 13:55:12;;;;;;;8.82;6.10;;;8.60;99.90;;;;;;4956679;28;20129;-85
2021/12/12 13:57:48;;;;;;;2.72;2.53;;;8.60;99.90;;;;;;4956712;28;20054;-84
2021/12/12 14:00:23;;;;;;;3.42;2.95;;;8.60;99.90;;;;;;4972574;28;20093;-82
2021/12/12 14:03:06;;;;;;;1.40;1.30;;;8.70;99.90;;;;;;4956697;28;20130;-86
2021/12/12 14:05:44;;;;;;;4.30;2.45;;;8.70;99.90;;;;;;4956881;28;20043;-84
2021/12/12 14:08:20;;;;;;;1.25;1.15;;;8.70;99.90;;;;;;4974167;28;20051;-82
2021/12/12 14:10:55;;;;;;;0.82;0.82;;;8.80;99.90;;;;;;4956645;28;20054;-84
2021/12/12 14:13:26;;;;;;;1.05;0.98;;;8.90;99.90;;;;;;4957046;28;20090;-84
2021/12/12 14:16:02;;;;;;;0.68;0.68;;;8.90;99.90;;;;;;4974134;28;20058;-86